Time;durP1;ratioP1;P1;durP2;ratioP2;P2;SDS_P1;SDS_P2;PMS_P1;PMS_P2;Temp;Humidity;BMP_temperature;BMP_pressure;BME280_temperature;BME280_humidity;BME280_pressure;Samples;Min_cycle;Max_cycle;Signal;HPM_P1;HPM_P2
2022/04/27 00:02:01;;;;;;;3.75;1.75;;;;;;;;;;5017855;28;20136;-58
2022/04/27 00:04:32;;;;;;;4.45;2.28;;;;;;;;;;5015912;28;20061;-56
2022/04/27 00:06:59;;;;;;;2.38;1.52;;;;;;;;;;5020810;28;20057;-57
2022/04/27 00:09:25;;;;;;;3.22;1.63;;;;;;;;;;5018716;28;20054;-56
2022/04/27 00:11:55;;;;;;;2.40;1.75;;;;;;;;;;5021719;28;20168;-57
2022/04/27 00:14:22;;;;;;;6.20;1.92;;;;;;;;;;5023908;28;20140;-57
2022/04/27 00:16:49;;;;;;;3.63;1.98;;;;;;;;;;5024916;28;20129;-54
2022/04/27 00:19:25;;;;;;;2.97;1.83;;;;;;;;;;5023277;28;20055;-56
2022/04/27 00:21:52;;;;;;;4.03;1.90;;;;;;;;;;5021713;28;20569;-57
2022/04/27 00:24:18;;;;;;;3.72;1.90;;;;;;;;;;5023315;28;20125;-55
2022/04/27 00:26:45;;;;;;;5.20;2.17;;;;;;;;;;5024035;28;20569;-58
2022/04/27 00:29:11;;;;;;;5.50;2.03;;;;;;;;;;5020961;28;20151;-57
2022/04/27 00:31:38;;;;;;;4.80;1.90;;;;;;;;;;5018163;28;20145;-53
2022/04/27 00:34:07;;;;;;;2.03;1.70;;;;;;;;;;5024887;28;20084;-57
2022/04/27 00:36:35;;;;;;;5.15;2.10;;;;;;;;;;5022303;28;20551;-54
2022/04/27 00:39:02;;;;;;;3.80;1.65;;;;;;;;;;5023187;28;20100;-57
2022/04/27 00:41:35;;;;;;;5.75;1.73;;;;;;;;;;5021010;28;20053;-56
2022/04/27 00:44:02;;;;;;;3.92;1.63;;;;;;;;;;5021043;28;20144;-56
2022/04/27 00:46:28;;;;;;;5.13;1.40;;;;;;;;;;5023850;28;20161;-56
2022/04/27 00:48:56;;;;;;;11.45;2.45;;;;;;;;;;5018881;28;20772;-56
2022/04/27 00:51:23;;;;;;;6.15;1.98;;;;;;;;;;5021040;28;20686;-57
2022/04/27 00:53:50;;;;;;;5.20;1.60;;;;;;;;;;5023319;28;20140;-56
2022/04/27 00:56:18;;;;;;;3.95;1.42;;;;;;;;;;5018735;28;20085;-56
2022/04/27 00:58:44;;;;;;;;;;;;;;;;;;5021981;28;20053;-56
2022/04/27 01:01:18;;;;;;;4.45;2.13;;;;;;;;;;5025277;28;19921;-54
2022/04/27 01:03:46;;;;;;;6.32;2.00;;;;;;;;;;5020444;28;20060;-56
2022/04/27 01:06:13;;;;;;;3.80;1.73;;;;;;;;;;5025312;28;20092;-56
2022/04/27 01:08:39;;;;;;;3.30;1.80;;;;;;;;;;5024887;28;20081;-55
2022/04/27 01:11:06;;;;;;;5.10;2.17;;;;;;;;;;5023007;28;20608;-56
2022/04/27 01:13:32;;;;;;;2.90;1.80;;;;;;;;;;5021278;28;20049;-56
2022/04/27 01:15:59;;;;;;;8.35;1.98;;;;;;;;;;5019327;28;20723;-57
2022/04/27 01:18:27;;;;;;;3.95;1.77;;;;;;;;;;5019885;28;20614;-56
2022/04/27 01:20:54;;;;;;;3.75;1.90;;;;;;;;;;5020638;28;20136;-56
2022/04/27 01:23:21;;;;;;;3.20;1.63;;;;;;;;;;5020129;28;20610;-56
2022/04/27 01:25:49;;;;;;;4.22;1.73;;;;;;;;;;5022088;28;20042;-54
2022/04/27 01:28:16;;;;;;;6.20;1.70;;;;;;;;;;5019814;28;20492;-55
2022/04/27 01:30:44;;;;;;;2.28;1.80;;;;;;;;;;5018853;28;20465;-56
2022/04/27 01:33:11;;;;;;;8.32;2.08;;;;;;;;;;5021703;28;20073;-56
2022/04/27 01:35:38;;;;;;;3.13;1.95;;;;;;;;;;5019180;28;20417;-56
2022/04/27 01:38:07;;;;;;;1.42;1.08;;;;;;;;;;5019062;28;20073;-56
2022/04/27 01:40:40;;;;;;;3.80;2.00;;;;;;;;;;5018474;28;20473;-55
2022/04/27 01:43:07;;;;;;;5.70;1.83;;;;;;;;;;5023442;28;20464;-55
2022/04/27 01:45:33;;;;;;;3.15;1.70;;;;;;;;;;5019249;28;20247;-57
2022/04/27 01:48:07;;;;;;;7.82;2.40;;;;;;;;;;5022589;28;20569;-57
2022/04/27 01:50:33;;;;;;;4.20;2.20;;;;;;;;;;5022413;28;20084;-57
2022/04/27 01:55:46;;;;;;;4.78;2.53;;;;;;;;;;5021278;28;20141;-56
2022/04/27 01:58:12;;;;;;;2.47;2.00;;;;;;;;;;5020673;28;20627;-55
2022/04/27 02:00:38;;;;;;;4.10;2.13;;;;;;;;;;5021448;28;20468;-55
2022/04/27 02:03:13;;;;;;;4.13;2.00;;;;;;;;;;5020708;28;20573;-56
2022/04/27 02:05:39;;;;;;;4.20;1.85;;;;;;;;;;5021017;28;20060;-56
2022/04/27 02:08:06;;;;;;;5.38;2.33;;;;;;;;;;5019990;28;20116;-56
2022/04/27 02:10:34;;;;;;;9.27;1.98;;;;;;;;;;5017798;28;20084;-56
2022/04/27 02:13:05;;;;;;;3.38;2.00;;;;;;;;;;5021835;28;20195;-57
2022/04/27 02:15:32;;;;;;;4.38;2.40;;;;;;;;;;5023622;28;20144;-54
2022/04/27 02:18:00;;;;;;;6.47;2.33;;;;;;;;;;5018612;28;20137;-56
2022/04/27 02:20:27;;;;;;;5.53;1.83;;;;;;;;;;5017477;28;20077;-54
2022/04/27 02:22:53;;;;;;;5.13;1.43;;;;;;;;;;5021493;28;20469;-57
2022/04/27 02:25:20;;;;;;;3.75;2.08;;;;;;;;;;5019738;28;20408;-56
2022/04/27 02:27:47;;;;;;;3.93;1.60;;;;;;;;;;5020177;28;20055;-57
2022/04/27 02:30:14;;;;;;;4.00;1.67;;;;;;;;;;5020658;28;20295;-57
2022/04/27 02:32:45;;;;;;;2.78;1.75;;;;;;;;;;5022471;28;20151;-57
2022/04/27 02:35:12;;;;;;;9.05;2.30;;;;;;;;;;5020932;28;20476;-57
2022/04/27 02:37:39;;;;;;;8.38;2.20;;;;;;;;;;5018578;28;20052;-56
2022/04/27 02:40:12;;;;;;;4.25;2.28;;;;;;;;;;5021336;28;20469;-56
2022/04/27 02:42:39;;;;;;;5.88;2.35;;;;;;;;;;5017686;28;20081;-57
2022/04/27 02:45:05;;;;;;;4.45;2.30;;;;;;;;;;5021916;28;20054;-55
2022/04/27 02:47:32;;;;;;;6.47;2.72;;;;;;;;;;5020573;28;20061;-57
2022/04/27 02:52:46;;;;;;;5.30;2.38;;;;;;;;;;5017047;28;20528;-57
2022/04/27 02:55:12;;;;;;;5.15;2.50;;;;;;;;;;5016248;28;20493;-56
2022/04/27 02:57:39;;;;;;;7.25;2.40;;;;;;;;;;5022721;28;20045;-55
2022/04/27 03:00:06;;;;;;;5.70;2.63;;;;;;;;;;5020658;28;20140;-57
2022/04/27 03:02:33;;;;;;;5.35;2.72;;;;;;;;;;5020248;28;20072;-54
2022/04/27 03:05:00;;;;;;;4.75;2.30;;;;;;;;;;5020541;28;20057;-55
2022/04/27 03:07:28;;;;;;;3.00;2.17;;;;;;;;;;5016420;28;20132;-58
2022/04/27 03:09:55;;;;;;;5.00;2.20;;;;;;;;;;5018678;28;20137;-56
2022/04/27 03:12:23;;;;;;;5.13;2.60;;;;;;;;;;5019239;28;20149;-56
2022/04/27 03:14:49;;;;;;;4.63;2.47;;;;;;;;;;5022097;28;20148;-57
2022/04/27 03:17:16;;;;;;;3.27;2.37;;;;;;;;;;5016272;28;20519;-57
2022/04/27 03:19:42;;;;;;;10.48;2.40;;;;;;;;;;5017200;28;20057;-57
2022/04/27 03:22:10;;;;;;;4.55;2.40;;;;;;;;;;5017335;28;20115;-56
2022/04/27 03:24:37;;;;;;;3.33;2.08;;;;;;;;;;5020461;28;20148;-57
2022/04/27 03:27:05;;;;;;;5.50;2.47;;;;;;;;;;5017340;28;20049;-56
2022/04/27 03:29:32;;;;;;;5.10;2.30;;;;;;;;;;5020593;28;20136;-55
2022/04/27 03:31:59;;;;;;;4.28;2.13;;;;;;;;;;5017433;28;20581;-57
2022/04/27 03:34:26;;;;;;;4.17;2.70;;;;;;;;;;5016019;28;20057;-57
2022/04/27 03:36:54;;;;;;;5.47;2.28;;;;;;;;;;5016611;28;20571;-57
2022/04/27 03:39:21;;;;;;;6.78;2.40;;;;;;;;;;5019118;28;20081;-56
2022/04/27 03:42:07;;;;;;;2.90;1.80;;;;;;;;;;5017362;28;20049;-55
2022/04/27 03:44:41;;;;;;;3.13;1.75;;;;;;;;;;5019765;28;20053;-60
2022/04/27 03:47:07;;;;;;;2.45;1.75;;;;;;;;;;5023672;28;20046;-58
2022/04/27 03:49:33;;;;;;;4.30;2.10;;;;;;;;;;5022865;28;20078;-57
2022/04/27 03:52:01;;;;;;;3.50;2.25;;;;;;;;;;5021060;28;20708;-56
2022/04/27 03:54:27;;;;;;;3.40;1.70;;;;;;;;;;5021030;28;20054;-56
2022/04/27 03:56:54;;;;;;;7.30;1.73;;;;;;;;;;5021265;28;20132;-56
2022/04/27 03:59:21;;;;;;;5.07;1.63;;;;;;;;;;5019327;28;20124;-57
2022/04/27 04:01:47;;;;;;;4.65;2.50;;;;;;;;;;5023110;28;20158;-57
2022/04/27 04:04:14;;;;;;;4.15;2.17;;;;;;;;;;5019577;28;20099;-57
2022/04/27 04:06:42;;;;;;;5.85;2.38;;;;;;;;;;5021771;28;20457;-57
2022/04/27 04:09:09;;;;;;;5.25;2.78;;;;;;;;;;5023841;28;20048;-57
2022/04/27 04:11:36;;;;;;;3.72;2.40;;;;;;;;;;5020982;28;20057;-56
2022/04/27 04:14:09;;;;;;;3.63;2.33;;;;;;;;;;5022660;28;20135;-57
2022/04/27 04:16:35;;;;;;;5.65;2.80;;;;;;;;;;5021593;28;20132;-57
2022/04/27 04:19:01;;;;;;;3.45;2.58;;;;;;;;;;5020964;28;20324;-57
2022/04/27 04:21:29;;;;;;;3.25;2.42;;;;;;;;;;5016521;28;20099;-56
2022/04/27 04:23:55;;;;;;;3.58;2.50;;;;;;;;;;5022820;28;20081;-57
2022/04/27 04:29:07;;;;;;;4.15;2.47;;;;;;;;;;5021451;28;20134;-55
2022/04/27 04:31:33;;;;;;;4.78;2.40;;;;;;;;;;5021282;28;20115;-57
2022/04/27 04:34:07;;;;;;;5.22;2.42;;;;;;;;;;5020321;28;20050;-57
2022/04/27 04:36:35;;;;;;;4.32;2.50;;;;;;;;;;5020280;28;20088;-58
2022/04/27 04:39:01;;;;;;;5.03;2.40;;;;;;;;;;5022253;28;20077;-56
2022/04/27 04:41:27;;;;;;;6.53;2.33;;;;;;;;;;5023047;28;20084;-58
2022/04/27 04:44:01;;;;;;;5.72;2.15;;;;;;;;;;5021946;28;20081;-56
2022/04/27 04:46:27;;;;;;;9.23;2.65;;;;;;;;;;5019056;28;20556;-57
2022/04/27 04:48:53;;;;;;;3.78;2.10;;;;;;;;;;5022857;28;20409;-57
2022/04/27 04:51:23;;;;;;;5.13;2.40;;;;;;;;;;5023797;28;20057;-56
2022/04/27 04:54:01;;;;;;;;;;;;;;;;;;5018284;28;20046;-58
2022/04/27 04:56:27;;;;;;;3.38;2.28;;;;;;;;;;5023195;28;20019;-56
2022/04/27 04:58:54;;;;;;;3.53;1.92;;;;;;;;;;5022102;28;20137;-58
2022/04/27 05:01:20;;;;;;;3.38;2.08;;;;;;;;;;5018899;28;20964;-58
2022/04/27 05:03:48;;;;;;;3.45;2.00;;;;;;;;;;5018290;28;20053;-59
2022/04/27 05:06:14;;;;;;;4.45;2.20;;;;;;;;;;5021639;28;20141;-58
2022/04/27 05:08:40;;;;;;;3.72;2.08;;;;;;;;;;5022841;28;20058;-58
2022/04/27 05:11:14;;;;;;;4.45;1.90;;;;;;;;;;5026201;28;20136;-59
2022/04/27 05:13:40;;;;;;;4.97;2.03;;;;;;;;;;5021402;28;20544;-58
2022/04/27 05:16:06;;;;;;;3.15;2.00;;;;;;;;;;5021547;28;20111;-58
2022/04/27 05:18:35;;;;;;;4.85;1.80;;;;;;;;;;5016434;28;20085;-58
2022/04/27 05:21:01;;;;;;;;;;;;;;;;;;5019103;28;20491;-59
2022/04/27 05:23:28;;;;;;;4.38;1.92;;;;;;;;;;5022375;28;19968;-58
2022/04/27 05:26:00;;;;;;;3.17;1.92;;;;;;;;;;5019741;28;20532;-59
2022/04/27 05:31:53;;;;;;;4.78;2.42;;;;;;;;;;5019158;28;20129;-58
2022/04/27 05:34:06;;;;;;;2.17;1.67;;;;;;;;;;5020240;28;20063;-59
2022/04/27 05:36:39;;;;;;;4.43;2.08;;;;;;;;;;5022197;28;20133;-59
2022/04/27 05:39:05;;;;;;;4.47;1.90;;;;;;;;;;5022416;28;20155;-59
2022/04/27 05:41:31;;;;;;;3.35;1.60;;;;;;;;;;5021871;28;20132;-59
2022/04/27 05:44:09;;;;;;;2.38;1.70;;;;;;;;;;5019698;28;20132;-58
2022/04/27 05:46:36;;;;;;;4.78;1.80;;;;;;;;;;5021215;28;20089;-59
2022/04/27 05:49:09;;;;;;;5.15;2.20;;;;;;;;;;5021304;28;20148;-59
2022/04/27 05:51:36;;;;;;;7.60;1.95;;;;;;;;;;5022140;28;20129;-59
2022/04/27 05:54:02;;;;;;;3.40;1.80;;;;;;;;;;5017426;28;20505;-60
2022/04/27 05:56:29;;;;;;;4.05;1.67;;;;;;;;;;5022712;28;20136;-59
2022/04/27 05:59:01;;;;;;;1.90;1.48;;;;;;;;;;5020052;28;20276;-59
2022/04/27 06:01:28;;;;;;;5.68;1.60;;;;;;;;;;5022947;28;20262;-59
2022/04/27 06:03:55;;;;;;;4.32;1.73;;;;;;;;;;5022309;28;20116;-59
2022/04/27 06:06:23;;;;;;;4.15;2.25;;;;;;;;;;5021208;28;20133;-58
2022/04/27 06:08:50;;;;;;;4.88;1.23;;;;;;;;;;5025100;28;20053;-60
2022/04/27 06:11:16;;;;;;;3.63;1.40;;;;;;;;;;5023241;28;20137;-60
2022/04/27 06:13:43;;;;;;;4.72;2.22;;;;;;;;;;5015879;28;20144;-60
2022/04/27 06:16:10;;;;;;;3.13;1.50;;;;;;;;;;5015935;28;20049;-60
2022/04/27 06:18:39;;;;;;;5.07;1.30;;;;;;;;;;5021464;28;20766;-59
2022/04/27 06:21:06;;;;;;;2.80;1.45;;;;;;;;;;5017254;28;20145;-60
2022/04/27 06:23:33;;;;;;;11.52;1.48;;;;;;;;;;5025130;28;20085;-60
2022/04/27 06:25:59;;;;;;;4.97;1.88;;;;;;;;;;5020671;28;20073;-60
2022/04/27 06:28:33;;;;;;;4.10;1.67;;;;;;;;;;5020561;28;20140;-60
2022/04/27 06:31:00;;;;;;;2.50;1.13;;;;;;;;;;5000013;28;20084;-60
2022/04/27 06:33:26;;;;;;;2.15;1.30;;;;;;;;;;5019201;28;20498;-60
2022/04/27 06:36:00;;;;;;;7.85;1.58;;;;;;;;;;5019417;28;20056;-60
2022/04/27 06:38:27;;;;;;;3.22;1.48;;;;;;;;;;5020537;28;20107;-60
2022/04/27 06:41:05;;;;;;;3.42;1.40;;;;;;;;;;5019166;28;20049;-60
2022/04/27 06:43:39;;;;;;;3.03;1.40;;;;;;;;;;5020918;28;20649;-60
2022/04/27 06:46:05;;;;;;;2.17;1.30;;;;;;;;;;5019019;28;20056;-60
2022/04/27 06:48:32;;;;;;;4.70;1.58;;;;;;;;;;5023782;28;20049;-60
2022/04/27 06:51:05;;;;;;;3.47;1.38;;;;;;;;;;5020672;28;20488;-60
2022/04/27 06:53:32;;;;;;;2.13;1.35;;;;;;;;;;5019993;28;20158;-60
2022/04/27 06:56:02;;;;;;;5.25;1.63;;;;;;;;;;5021167;28;20128;-61
2022/04/27 06:58:31;;;;;;;1.42;1.13;;;;;;;;;;5015796;28;20111;-61
2022/04/27 07:00:58;;;;;;;2.08;1.20;;;;;;;;;;5023361;28;20615;-60
2022/04/27 07:03:24;;;;;;;3.35;1.35;;;;;;;;;;5018527;28;20087;-61
2022/04/27 07:05:52;;;;;;;2.63;1.52;;;;;;;;;;5014021;28;20137;-61
2022/04/27 07:08:19;;;;;;;1.80;1.33;;;;;;;;;;5015440;28;20121;-61
2022/04/27 07:10:45;;;;;;;2.83;1.25;;;;;;;;;;5020518;28;20061;-61
2022/04/27 07:13:12;;;;;;;1.40;0.93;;;;;;;;;;5018224;28;20507;-61
2022/04/27 07:15:39;;;;;;;1.92;1.35;;;;;;;;;;5017512;28;20524;-61
2022/04/27 07:18:06;;;;;;;3.28;1.10;;;;;;;;;;5009450;28;20141;-61
2022/04/27 07:20:39;;;;;;;3.78;1.30;;;;;;;;;;5020730;28;20129;-61
2022/04/27 07:23:05;;;;;;;2.38;1.20;;;;;;;;;;5015602;28;20129;-61
2022/04/27 07:25:32;;;;;;;1.85;1.40;;;;;;;;;;5020177;28;20096;-61
2022/04/27 07:28:01;;;;;;;3.95;1.20;;;;;;;;;;5017868;28;20671;-61
2022/04/27 07:30:30;;;;;;;2.83;1.13;;;;;;;;;;5017691;28;20586;-61
2022/04/27 07:32:57;;;;;;;1.88;1.20;;;;;;;;;;5016538;28;20085;-61
2022/04/27 07:35:25;;;;;;;2.60;1.10;;;;;;;;;;5016212;28;20141;-61
2022/04/27 07:37:52;;;;;;;2.90;1.20;;;;;;;;;;5020957;28;20150;-61
2022/04/27 07:40:18;;;;;;;5.25;1.25;;;;;;;;;;5021899;28;20089;-61
2022/04/27 07:42:45;;;;;;;3.97;1.40;;;;;;;;;;5018152;28;20052;-62
2022/04/27 07:45:11;;;;;;;5.47;1.50;;;;;;;;;;5014796;28;20134;-61
2022/04/27 07:47:47;;;;;;;2.15;1.30;;;;;;;;;;5020872;28;20133;-62
2022/04/27 07:50:21;;;;;;;2.10;1.25;;;;;;;;;;5019038;28;20128;-62
2022/04/27 07:52:47;;;;;;;3.85;1.42;;;;;;;;;;5002081;28;20054;-62
2022/04/27 07:55:14;;;;;;;2.90;1.40;;;;;;;;;;5019015;28;20085;-62
2022/04/27 07:57:45;;;;;;;1.90;1.23;;;;;;;;;;5017282;28;20141;-62
2022/04/27 08:00:14;;;;;;;1.73;1.08;;;;;;;;;;5017382;28;20125;-62
2022/04/27 08:02:41;;;;;;;2.90;1.23;;;;;;;;;;5016109;28;20480;-62
2022/04/27 08:05:08;;;;;;;;;;;;;;;;;;5005434;28;20143;-62
2022/04/27 08:07:39;;;;;;;4.28;1.23;;;;;;;;;;5016330;28;20031;-62
2022/04/27 08:10:09;;;;;;;3.65;1.30;;;;;;;;;;5019899;28;20128;-62
2022/04/27 08:12:36;;;;;;;2.63;1.02;;;;;;;;;;5019144;28;20129;-63
2022/04/27 08:15:05;;;;;;;2.60;1.20;;;;;;;;;;5018171;28;20154;-63
2022/04/27 08:17:33;;;;;;;5.45;1.40;;;;;;;;;;5001336;28;20046;-63
2022/04/27 08:22:51;;;;;;;2.05;1.00;;;;;;;;;;5017440;28;20041;-63
2022/04/27 08:25:18;;;;;;;2.83;1.38;;;;;;;;;;5020161;28;20054;-63
2022/04/27 08:27:44;;;;;;;2.20;1.20;;;;;;;;;;5020702;28;20089;-63
2022/04/27 08:30:11;;;;;;;2.22;1.30;;;;;;;;;;5017361;28;20050;-63
2022/04/27 08:32:38;;;;;;;3.83;1.30;;;;;;;;;;5021674;28;20132;-63
2022/04/27 08:35:04;;;;;;;2.30;1.00;;;;;;;;;;5020593;28;20077;-63
2022/04/27 08:37:31;;;;;;;1.58;0.98;;;;;;;;;;5022402;28;20144;-64
2022/04/27 08:40:05;;;;;;;1.70;0.95;;;;;;;;;;5019500;28;20048;-63
2022/04/27 08:42:32;;;;;;;3.75;1.23;;;;;;;;;;5019781;28;20138;-64
2022/04/27 08:44:59;;;;;;;2.00;1.00;;;;;;;;;;5022970;28;20471;-64
2022/04/27 08:47:27;;;;;;;2.30;0.90;;;;;;;;;;5025044;28;20592;-64
2022/04/27 08:49:54;;;;;;;2.15;1.10;;;;;;;;;;5019493;28;20067;-64
2022/04/27 08:52:27;;;;;;;2.28;1.00;;;;;;;;;;5023942;28;20136;-64
2022/04/27 08:54:54;;;;;;;2.97;1.08;;;;;;;;;;5024728;28;20132;-64
2022/04/27 08:57:20;;;;;;;0.73;0.70;;;;;;;;;;5023931;28;20106;-64
2022/04/27 08:59:50;;;;;;;2.88;1.20;;;;;;;;;;5021216;28;20100;-64
2022/04/27 09:02:24;;;;;;;5.88;1.20;;;;;;;;;;5019800;28;20081;-64
2022/04/27 09:05:08;;;;;;;1.73;1.08;;;;;;;;;;5018334;28;20460;-64
2022/04/27 09:07:52;;;;;;;2.15;1.30;;;;;;;;;;5026374;28;20145;-64
2022/04/27 09:10:21;;;;;;;1.42;1.00;;;;;;;;;;5019347;28;20145;-64
2022/04/27 09:12:49;;;;;;;3.10;1.02;;;;;;;;;;5018279;28;20093;-64
2022/04/27 09:15:16;;;;;;;1.30;0.90;;;;;;;;;;5018427;28;20136;-64
2022/04/27 09:20:48;;;;;;;2.83;1.00;;;;;;;;;;5025404;28;20109;-65
2022/04/27 09:23:22;;;;;;;2.92;1.00;;;;;;;;;;5023560;28;20041;-65
2022/04/27 09:25:51;;;;;;;5.07;0.80;;;;;;;;;;5020128;28;20578;-65
2022/04/27 09:28:33;;;;;;;2.88;0.98;;;;;;;;;;5021162;28;20518;-65
2022/04/27 09:31:01;;;;;;;;;;;;;;;;;;5019545;28;20480;-65
2022/04/27 09:33:34;;;;;;;1.48;0.75;;;;;;;;;;5023852;28;19925;-65
2022/04/27 09:36:20;;;;;;;1.25;0.80;;;;;;;;;;5021971;28;20535;-65
2022/04/27 09:38:46;;;;;;;1.23;0.98;;;;;;;;;;5019624;28;20093;-65
2022/04/27 09:41:13;;;;;;;1.45;0.73;;;;;;;;;;5015477;28;20081;-65
2022/04/27 09:43:46;;;;;;;2.55;1.60;;;;;;;;;;5022037;28;20057;-65
2022/04/27 09:46:22;;;;;;;2.10;1.15;;;;;;;;;;5021120;28;20053;-64
2022/04/27 09:48:59;;;;;;;1.65;1.02;;;;;;;;;;5017930;28;20046;-64
2022/04/27 09:51:53;;;;;;;4.35;1.05;;;;;;;;;;5019592;28;20053;-64
2022/04/27 09:54:23;;;;;;;3.92;1.20;;;;;;;;;;5020609;28;20091;-65
2022/04/27 09:56:51;;;;;;;4.88;1.27;;;;;;;;;;5022642;28;20089;-65
2022/04/27 09:59:19;;;;;;;2.95;0.90;;;;;;;;;;5018043;28;20468;-64
2022/04/27 10:01:45;;;;;;;;;;;;;;;;;;5021930;28;20556;-64
2022/04/27 10:04:18;;;;;;;3.78;1.23;;;;;;;;;;5018824;28;20478;-66
2022/04/27 10:06:45;;;;;;;5.15;1.00;;;;;;;;;;5019898;28;20493;-64
2022/04/27 10:09:12;;;;;;;3.92;1.10;;;;;;;;;;5021647;28;20077;-64
2022/04/27 10:12:03;;;;;;;1.35;0.90;;;;;;;;;;5019951;28;20053;-66
2022/04/27 10:14:30;;;;;;;5.47;0.98;;;;;;;;;;5018808;28;20096;-66
2022/04/27 10:16:57;;;;;;;2.55;1.17;;;;;;;;;;5006356;28;20480;-64
2022/04/27 10:19:24;;;;;;;2.72;1.20;;;;;;;;;;5019686;28;20125;-64
2022/04/27 10:21:57;;;;;;;5.73;1.20;;;;;;;;;;5022797;28;20146;-64
2022/04/27 10:24:41;;;;;;;1.85;0.90;;;;;;;;;;5023115;28;20319;-64
2022/04/27 10:27:46;;;;;;;3.63;1.67;;;;;;;;;;5022576;28;20128;-64
2022/04/27 10:30:19;;;;;;;3.53;1.02;;;;;;;;;;4947690;28;20134;-65
2022/04/27 10:32:47;;;;;;;5.43;0.93;;;;;;;;;;4953837;28;20079;-64
2022/04/27 10:35:19;;;;;;;2.72;1.15;;;;;;;;;;4986026;28;20332;-64
2022/04/27 10:37:52;;;;;;;2.40;1.13;;;;;;;;;;5020125;28;20152;-64
2022/04/27 10:40:36;;;;;;;2.55;1.20;;;;;;;;;;5017877;28;20627;-64
2022/04/27 10:43:11;;;;;;;1.13;0.90;;;;;;;;;;5015469;28;20166;-64
2022/04/27 10:45:39;;;;;;;1.52;1.10;;;;;;;;;;5020935;28;20073;-64
2022/04/27 10:48:07;;;;;;;1.67;1.00;;;;;;;;;;5020063;28;20112;-64
2022/04/27 10:50:36;;;;;;;3.40;1.20;;;;;;;;;;5022379;28;20136;-66
2022/04/27 10:53:19;;;;;;;2.08;0.90;;;;;;;;;;5020263;28;20132;-64
2022/04/27 10:55:54;;;;;;;1.67;1.10;;;;;;;;;;5018014;28;20053;-65
2022/04/27 10:58:28;;;;;;;1.83;1.00;;;;;;;;;;5013952;28;20053;-64
2022/04/27 11:00:58;;;;;;;3.80;0.90;;;;;;;;;;5015745;28;20132;-64
2022/04/27 11:03:25;;;;;;;5.03;0.95;;;;;;;;;;5020078;28;20064;-64
2022/04/27 11:05:52;;;;;;;1.25;0.82;;;;;;;;;;5020091;28;20046;-64
2022/04/27 11:08:27;;;;;;;3.00;1.27;;;;;;;;;;5017179;28;20104;-64
2022/04/27 11:11:01;;;;;;;2.22;0.90;;;;;;;;;;5022265;28;20104;-64
2022/04/27 11:13:29;;;;;;;1.60;1.00;;;;;;;;;;5019310;28;20050;-64
2022/04/27 11:16:06;;;;;;;3.20;0.95;;;;;;;;;;5017098;28;20137;-64
2022/04/27 11:18:49;;;;;;;4.05;1.35;;;;;;;;;;5019884;28;20053;-64
2022/04/27 11:21:19;;;;;;;2.25;1.08;;;;;;;;;;5019123;28;20560;-64
2022/04/27 11:23:46;;;;;;;1.10;0.82;;;;;;;;;;5019698;28;20421;-64
2022/04/27 11:26:16;;;;;;;2.58;1.30;;;;;;;;;;5018226;28;20124;-64
2022/04/27 11:28:43;;;;;;;4.90;1.45;;;;;;;;;;5016196;28;20129;-64
2022/04/27 11:31:17;;;;;;;2.65;1.10;;;;;;;;;;5023456;28;20136;-64
2022/04/27 11:33:43;;;;;;;7.20;1.48;;;;;;;;;;5019715;28;20056;-63
2022/04/27 11:36:23;;;;;;;3.78;1.48;;;;;;;;;;5018173;28;20132;-63
2022/04/27 11:38:51;;;;;;;5.85;1.38;;;;;;;;;;5017096;28;20412;-64
2022/04/27 11:41:19;;;;;;;3.40;1.23;;;;;;;;;;5020323;28;20081;-64
2022/04/27 11:43:49;;;;;;;2.70;1.10;;;;;;;;;;5018480;28;20056;-64
2022/04/27 11:46:35;;;;;;;1.90;1.20;;;;;;;;;;5015484;28;20124;-64
2022/04/27 11:49:01;;;;;;;;;;;;;;;;;;5015610;28;20137;-64
2022/04/27 11:51:36;;;;;;;2.95;1.30;;;;;;;;;;5018502;28;19925;-64
2022/04/27 11:54:02;;;;;;;5.75;1.40;;;;;;;;;;5020075;28;20053;-64
2022/04/27 11:56:35;;;;;;;4.90;1.58;;;;;;;;;;5018271;28;20053;-63
2022/04/27 11:59:09;;;;;;;2.60;1.30;;;;;;;;;;5020577;28;20124;-63
2022/04/27 12:01:35;;;;;;;6.40;1.35;;;;;;;;;;5017234;28;20566;-63
2022/04/27 12:04:03;;;;;;;5.00;1.58;;;;;;;;;;5017185;28;20819;-64
2022/04/27 12:06:34;;;;;;;8.32;1.77;;;;;;;;;;5021707;28;20141;-64
2022/04/27 12:09:02;;;;;;;4.68;1.48;;;;;;;;;;5024416;28;20581;-63
2022/04/27 12:11:28;;;;;;;2.17;1.35;;;;;;;;;;5024076;28;20133;-64
2022/04/27 12:13:56;;;;;;;;;;;;;;;;;;5019906;28;20136;-64
2022/04/27 12:16:28;;;;;;;3.60;1.65;;;;;;;;;;5019767;28;20332;-64
2022/04/27 12:18:54;;;;;;;2.40;1.42;;;;;;;;;;5022295;28;20136;-64
2022/04/27 12:21:29;;;;;;;5.13;1.63;;;;;;;;;;5025156;28;20085;-64
2022/04/27 12:23:56;;;;;;;4.18;1.60;;;;;;;;;;5021096;28;20138;-63
2022/04/27 12:26:24;;;;;;;2.88;1.35;;;;;;;;;;5021481;28;20129;-64
2022/04/27 12:28:53;;;;;;;4.38;1.83;;;;;;;;;;5022194;28;20103;-63
2022/04/27 12:31:25;;;;;;;4.13;1.70;;;;;;;;;;5019917;28;20497;-64
2022/04/27 12:33:51;;;;;;;6.75;1.90;;;;;;;;;;5020658;28;20050;-63
2022/04/27 12:39:23;;;;;;;3.92;1.50;;;;;;;;;;5024201;28;20125;-63
2022/04/27 12:41:52;;;;;;;5.75;1.60;;;;;;;;;;5020222;28;20057;-64
2022/04/27 12:44:20;;;;;;;2.83;1.42;;;;;;;;;;5022619;28;20473;-64
2022/04/27 12:47:03;;;;;;;6.15;1.50;;;;;;;;;;5022862;28;20112;-63
2022/04/27 12:49:32;;;;;;;2.60;1.15;;;;;;;;;;5023980;28;20149;-63
2022/04/27 12:52:17;;;;;;;3.40;1.10;;;;;;;;;;5024123;28;20065;-63
2022/04/27 12:54:45;;;;;;;2.38;1.20;;;;;;;;;;5021158;28;20080;-63
2022/04/27 12:57:18;;;;;;;1.05;0.80;;;;;;;;;;5022541;28;20137;-63
2022/04/27 12:59:54;;;;;;;2.60;0.95;;;;;;;;;;5020731;28;20095;-63
2022/04/27 13:02:21;;;;;;;3.30;0.90;;;;;;;;;;5019648;28;20089;-63
2022/04/27 13:04:49;;;;;;;2.60;0.88;;;;;;;;;;5019204;28;20481;-63
2022/04/27 13:07:15;;;;;;;2.28;1.00;;;;;;;;;;5021117;28;20049;-63
2022/04/27 13:12:32;;;;;;;3.33;1.08;;;;;;;;;;5020050;28;20136;-63
2022/04/27 13:15:06;;;;;;;5.03;1.30;;;;;;;;;;5019100;28;20462;-63
2022/04/27 13:17:33;;;;;;;4.07;0.88;;;;;;;;;;5017692;28;20081;-63
2022/04/27 13:20:00;;;;;;;6.15;1.17;;;;;;;;;;5019805;28;20171;-63
2022/04/27 13:22:26;;;;;;;5.20;1.40;;;;;;;;;;5019426;28;20053;-63
2022/04/27 13:24:56;;;;;;;4.10;1.33;;;;;;;;;;5021822;28;20042;-63
2022/04/27 13:27:24;;;;;;;6.32;2.25;;;;;;;;;;5020331;28;20561;-63
2022/04/27 13:30:02;;;;;;;5.10;1.70;;;;;;;;;;5020932;28;20632;-63
2022/04/27 13:32:28;;;;;;;6.70;2.03;;;;;;;;;;5018366;28;20064;-63
2022/04/27 13:34:57;;;;;;;7.82;1.77;;;;;;;;;;5021888;28;20080;-63
2022/04/27 13:37:24;;;;;;;4.05;1.70;;;;;;;;;;5020306;28;20818;-63
2022/04/27 13:39:52;;;;;;;2.78;1.40;;;;;;;;;;5017666;28;20413;-63
2022/04/27 13:42:19;;;;;;;2.72;1.30;;;;;;;;;;5017339;28;20050;-63
2022/04/27 13:44:46;;;;;;;;;;;;;;;;;;5025646;28;20630;-63
2022/04/27 13:47:13;;;;;;;5.15;1.60;;;;;;;;;;5020064;28;20564;-63
2022/04/27 13:49:39;;;;;;;3.97;1.63;;;;;;;;;;5021345;28;20413;-63
2022/04/27 13:52:07;;;;;;;4.55;1.23;;;;;;;;;;5015420;28;20128;-63
2022/04/27 13:54:36;;;;;;;2.58;1.10;;;;;;;;;;5019933;28;20045;-63
2022/04/27 13:57:04;;;;;;;2.35;1.20;;;;;;;;;;5019829;28;20041;-63
2022/04/27 13:59:36;;;;;;;4.93;1.30;;;;;;;;;;5020515;28;20133;-63
2022/04/27 14:02:05;;;;;;;4.63;1.20;;;;;;;;;;5018242;28;20065;-63
2022/04/27 14:04:31;;;;;;;;;;;;;;;;;;5022318;28;20045;-63
2022/04/27 14:06:59;;;;;;;2.17;1.25;;;;;;;;;;5015502;28;20373;-64
2022/04/27 14:09:25;;;;;;;5.70;1.50;;;;;;;;;;5017828;28;20813;-63
2022/04/27 14:14:41;;;;;;;2.58;0.93;;;;;;;;;;5019730;28;20191;-63
2022/04/27 14:19:55;;;;;;;7.15;1.90;;;;;;;;;;5018925;28;20049;-63
2022/04/27 14:22:22;;;;;;;2.00;1.20;;;;;;;;;;5017295;28;20128;-63
2022/04/27 14:24:48;;;;;;;5.40;1.30;;;;;;;;;;5024435;28;20144;-63
2022/04/27 14:27:22;;;;;;;7.28;1.42;;;;;;;;;;5021776;28;20057;-63
2022/04/27 14:29:48;;;;;;;2.50;1.00;;;;;;;;;;5016843;28;20085;-63
2022/04/27 14:32:15;;;;;;;4.97;1.30;;;;;;;;;;5018973;28;20501;-63
2022/04/27 14:34:41;;;;;;;1.75;1.23;;;;;;;;;;5018838;28;20734;-63
2022/04/27 14:37:09;;;;;;;2.42;1.10;;;;;;;;;;5020784;28;20128;-63
2022/04/27 14:39:35;;;;;;;2.38;1.10;;;;;;;;;;5019208;28;20119;-63
2022/04/27 14:42:04;;;;;;;2.78;1.10;;;;;;;;;;5023983;28;20551;-63
2022/04/27 14:44:30;;;;;;;6.28;1.35;;;;;;;;;;5021158;28;20128;-63
2022/04/27 14:46:57;;;;;;;8.13;1.10;;;;;;;;;;5014967;28;20124;-63
2022/04/27 14:49:30;;;;;;;3.75;1.10;;;;;;;;;;5017161;28;20164;-62
2022/04/27 14:51:57;;;;;;;1.60;1.00;;;;;;;;;;5018169;28;20112;-63
2022/04/27 14:54:23;;;;;;;3.17;1.15;;;;;;;;;;5017133;28;20133;-63
2022/04/27 14:56:53;;;;;;;4.50;1.25;;;;;;;;;;5016447;28;20073;-62
2022/04/27 14:59:19;;;;;;;2.97;0.80;;;;;;;;;;5011824;28;20128;-62
